createdAt,value
2022-12-29T00:00:08.770Z,93.45
2022-12-29T00:02:42.238Z,93.43
2022-12-29T00:05:09.739Z,93.40
2022-12-29T00:07:36.615Z,93.42
2022-12-29T00:10:04.315Z,93.45
2022-12-29T00:12:51.085Z,93.46
2022-12-29T00:15:36.787Z,93.45
2022-12-29T00:18:03.912Z,93.46
2022-12-29T00:20:49.306Z,93.42
2022-12-29T00:23:34.517Z,93.37
2022-12-29T00:26:23.347Z,93.45
2022-12-29T00:29:10.458Z,93.52
2022-12-29T00:31:55.681Z,93.60
2022-12-29T00:34:41.157Z,93.66
2022-12-29T00:37:08.029Z,93.66
2022-12-29T00:39:53.292Z,93.66
2022-12-29T00:42:38.654Z,93.61
2022-12-29T00:45:06.182Z,93.62
2022-12-29T00:47:32.926Z,93.59
2022-12-29T00:49:59.799Z,93.61
2022-12-29T00:52:27.786Z,93.69
2022-12-29T00:54:54.641Z,93.62
2022-12-29T00:57:21.433Z,93.56
2022-12-29T00:59:48.421Z,93.48
2022-12-29T01:02:16.470Z,93.39
2022-12-29T01:04:43.710Z,93.42
2022-12-29T01:07:10.519Z,93.34
2022-12-29T01:09:56.269Z,93.33
2022-12-29T01:12:41.435Z,93.20
2022-12-29T01:15:12.229Z,93.21
2022-12-29T01:17:39.092Z,93.23
2022-12-29T01:20:06.858Z,93.22
2022-12-29T01:22:34.174Z,93.17
2022-12-29T01:25:00.992Z,93.11
2022-12-29T01:27:28.287Z,93.08
2022-12-29T01:29:55.099Z,93.13
2022-12-29T01:32:21.995Z,93.09
2022-12-29T01:34:48.759Z,92.92
2022-12-29T01:37:15.598Z,93.14
2022-12-29T01:39:42.395Z,93.01
2022-12-29T01:42:23.787Z,92.93
2022-12-29T01:44:52.636Z,92.94
2022-12-29T01:47:30.428Z,92.81
2022-12-29T01:50:02.283Z,92.75
2022-12-29T01:52:33.205Z,92.74
2022-12-29T01:55:04.485Z,92.63
2022-12-29T01:57:37.999Z,92.59
2022-12-29T02:00:14.580Z,92.52
2022-12-29T02:02:54.555Z,92.43
2022-12-29T02:05:26.071Z,92.35
2022-12-29T02:07:54.016Z,92.32
2022-12-29T02:10:23.075Z,92.39
2022-12-29T02:12:50.314Z,92.37
2022-12-29T02:15:18.423Z,92.24
2022-12-29T02:18:09.649Z,92.18
2022-12-29T02:20:48.707Z,92.11
2022-12-29T02:23:37.883Z,92.06
2022-12-29T02:26:19.763Z,91.99
2022-12-29T02:29:05.180Z,92.05
2022-12-29T02:31:47.200Z,91.97
2022-12-29T02:34:20.017Z,91.94
2022-12-29T02:37:28.754Z,91.89
2022-12-29T02:40:20.997Z,91.89
2022-12-29T02:43:01.152Z,91.68
2022-12-29T02:45:46.717Z,91.71
2022-12-29T02:48:34.013Z,91.70
2022-12-29T02:51:16.437Z,91.63
2022-12-29T02:54:02.867Z,91.65
2022-12-29T02:56:29.757Z,91.46
2022-12-29T02:58:56.549Z,91.57
2022-12-29T03:01:34.936Z,91.47
2022-12-29T03:04:36.992Z,91.41
2022-12-29T03:07:03.780Z,91.21
2022-12-29T03:09:44.474Z,91.14
2022-12-29T03:12:48.730Z,90.82
2022-12-29T03:15:45.720Z,90.88
2022-12-29T03:18:42.020Z,90.34
2022-12-29T03:21:48.802Z,89.57
2022-12-29T03:24:26.411Z,88.94
2022-12-29T03:26:56.168Z,88.65
2022-12-29T03:29:23.556Z,88.02
2022-12-29T03:31:52.607Z,88.38
2022-12-29T03:34:22.315Z,87.96
2022-12-29T03:36:54.779Z,87.91
2022-12-29T03:39:24.601Z,87.67
2022-12-29T03:41:59.296Z,87.46
2022-12-29T03:44:34.809Z,87.09
2022-12-29T03:47:02.636Z,87.24
2022-12-29T03:49:29.642Z,86.54
2022-12-29T03:51:56.996Z,86.85
2022-12-29T03:54:24.940Z,86.70
2022-12-29T03:56:52.966Z,86.91
2022-12-29T03:59:29.506Z,86.83
2022-12-29T04:01:56.500Z,86.64
2022-12-29T04:04:23.438Z,86.87
2022-12-29T04:06:50.358Z,86.83
2022-12-29T04:09:17.216Z,87.07
2022-12-29T04:11:47.136Z,86.48
2022-12-29T04:14:14.424Z,86.29
2022-12-29T04:16:41.816Z,85.84
2022-12-29T04:19:09.301Z,86.74
2022-12-29T04:21:37.479Z,85.33
2022-12-29T04:24:07.549Z,85.84
2022-12-29T04:26:38.931Z,85.33
2022-12-29T04:29:35.053Z,85.40
2022-12-29T04:32:20.598Z,85.33
2022-12-29T04:34:50.174Z,85.61
2022-12-29T04:37:18.301Z,85.76
2022-12-29T04:39:45.619Z,86.18
2022-12-29T04:42:12.446Z,86.07
2022-12-29T04:44:44.902Z,85.40
2022-12-29T04:47:17.612Z,85.81
2022-12-29T04:50:06.121Z,85.96
2022-12-29T04:52:59.078Z,85.77
2022-12-29T04:55:26.911Z,85.90
2022-12-29T04:57:54.049Z,85.49
2022-12-29T05:00:21.399Z,84.97
2022-12-29T05:02:48.668Z,84.87
2022-12-29T05:05:16.036Z,85.01
2022-12-29T05:07:47.066Z,84.59
2022-12-29T05:10:13.989Z,85.53
2022-12-29T05:12:41.338Z,84.87
2022-12-29T05:15:09.848Z,85.03
2022-12-29T05:17:37.623Z,84.79
2022-12-29T05:20:06.417Z,84.73
2022-12-29T05:22:33.993Z,84.42
2022-12-29T05:25:01.150Z,84.82
2022-12-29T05:27:29.017Z,85.06
2022-12-29T05:30:18.946Z,85.06
2022-12-29T05:32:45.997Z,85.25
2022-12-29T05:35:12.783Z,85.03
2022-12-29T05:37:39.824Z,85.21
2022-12-29T05:40:07.924Z,84.45
2022-12-29T05:42:35.405Z,85.19
2022-12-29T05:45:15.283Z,85.13
2022-12-29T05:48:14.439Z,85.26
2022-12-29T05:51:07.926Z,85.04
2022-12-29T05:53:46.468Z,84.80
2022-12-29T05:56:13.347Z,84.55
2022-12-29T05:58:40.920Z,85.00
2022-12-29T06:01:07.951Z,84.80
2022-12-29T06:03:34.996Z,84.53
2022-12-29T06:06:01.910Z,84.74
2022-12-29T06:08:29.580Z,84.40
2022-12-29T06:10:56.725Z,84.55
2022-12-29T06:13:25.029Z,84.90
2022-12-29T06:15:52.477Z,84.49
2022-12-29T06:18:20.557Z,84.88
2022-12-29T06:20:48.262Z,84.77
2022-12-29T06:23:19.506Z,84.42
2022-12-29T06:25:48.707Z,85.00
2022-12-29T06:28:15.572Z,84.52
2022-12-29T06:30:47.611Z,84.58
2022-12-29T06:33:14.755Z,84.48
2022-12-29T06:35:43.554Z,84.70
2022-12-29T06:38:10.533Z,84.74
2022-12-29T06:40:37.306Z,84.74
2022-12-29T06:43:24.341Z,84.78
2022-12-29T06:46:19.875Z,84.64
2022-12-29T06:48:46.723Z,84.90
2022-12-29T06:51:13.520Z,84.69
2022-12-29T06:53:40.393Z,84.70
2022-12-29T06:56:07.692Z,84.74
2022-12-29T06:58:34.466Z,84.75
2022-12-29T07:01:01.324Z,84.90
2022-12-29T07:03:28.264Z,85.18
2022-12-29T07:05:55.489Z,84.72
2022-12-29T07:08:22.360Z,84.99
2022-12-29T07:10:49.201Z,84.72
2022-12-29T07:13:16.253Z,84.92
2022-12-29T07:15:43.090Z,85.17
2022-12-29T07:18:09.951Z,85.26
2022-12-29T07:20:36.709Z,85.35
2022-12-29T07:23:04.101Z,85.25
2022-12-29T07:25:30.937Z,85.48
2022-12-29T07:27:57.787Z,85.42
2022-12-29T07:30:24.662Z,85.44
2022-12-29T07:32:51.790Z,85.29
2022-12-29T07:35:18.596Z,85.58
2022-12-29T07:37:45.496Z,85.40
2022-12-29T07:40:13.792Z,85.41
2022-12-29T07:42:41.054Z,85.29
2022-12-29T07:45:10.312Z,85.55
2022-12-29T07:47:51.449Z,85.38
2022-12-29T07:50:18.389Z,85.37
2022-12-29T07:52:46.077Z,85.40
2022-12-29T07:55:12.941Z,85.52
2022-12-29T07:57:39.715Z,85.41
2022-12-29T08:00:07.140Z,85.19
2022-12-29T08:02:38.766Z,85.45
2022-12-29T08:05:06.303Z,85.54
2022-12-29T08:07:33.071Z,85.38
2022-12-29T08:10:00.112Z,83.74
2022-12-29T08:12:26.899Z,83.00
2022-12-29T08:14:53.931Z,83.81
2022-12-29T08:17:20.783Z,83.96
2022-12-29T08:19:47.855Z,84.17
2022-12-29T08:22:15.773Z,83.94
2022-12-29T08:24:42.583Z,84.04
2022-12-29T08:27:18.150Z,84.24
2022-12-29T08:29:47.960Z,84.40
2022-12-29T08:32:14.952Z,84.61
2022-12-29T08:34:41.820Z,84.52
2022-12-29T08:37:08.704Z,84.43
2022-12-29T08:39:35.747Z,84.78
2022-12-29T08:42:02.859Z,84.52
2022-12-29T08:44:29.687Z,84.27
2022-12-29T08:46:56.555Z,83.89
2022-12-29T08:49:23.571Z,83.96
2022-12-29T08:51:51.546Z,84.12
2022-12-29T08:54:18.388Z,83.94
2022-12-29T08:56:46.031Z,83.90
2022-12-29T08:59:14.798Z,84.20
2022-12-29T09:01:42.798Z,84.29
2022-12-29T09:04:15.532Z,84.35
2022-12-29T09:06:43.732Z,84.45
2022-12-29T09:09:11.320Z,84.63
2022-12-29T09:11:38.251Z,84.74
2022-12-29T09:14:05.224Z,84.65
2022-12-29T09:16:32.260Z,84.55
2022-12-29T09:18:59.206Z,84.57
2022-12-29T09:21:26.316Z,84.55
2022-12-29T09:23:53.441Z,84.61
2022-12-29T09:26:20.383Z,84.87
2022-12-29T09:28:48.163Z,84.80
2022-12-29T09:31:15.359Z,84.70
2022-12-29T09:33:42.235Z,84.58
2022-12-29T09:36:09.757Z,84.61
2022-12-29T09:38:36.919Z,84.71
2022-12-29T09:41:09.867Z,84.77
2022-12-29T09:43:51.812Z,84.53
2022-12-29T09:46:52.520Z,84.26
2022-12-29T09:49:25.796Z,84.41
2022-12-29T09:51:56.168Z,84.52
2022-12-29T09:54:41.413Z,84.38
2022-12-29T09:57:22.828Z,83.94
2022-12-29T09:59:54.135Z,84.09
2022-12-29T10:02:43.795Z,84.10
2022-12-29T10:05:27.535Z,84.23
2022-12-29T10:08:38.324Z,84.50
2022-12-29T10:11:14.859Z,84.46
2022-12-29T10:14:16.299Z,84.30
2022-12-29T10:17:10.987Z,84.26
2022-12-29T10:19:49.904Z,84.33
2022-12-29T10:22:36.375Z,84.35
2022-12-29T10:25:19.494Z,84.48
2022-12-29T10:27:49.893Z,84.45
2022-12-29T10:30:18.265Z,84.41
2022-12-29T10:32:54.587Z,84.45
2022-12-29T10:35:44.288Z,84.45
2022-12-29T10:38:42.337Z,84.47
2022-12-29T10:41:21.595Z,84.60
2022-12-29T10:43:52.239Z,84.52
2022-12-29T10:46:24.346Z,84.54
2022-12-29T10:48:51.246Z,84.55
2022-12-29T10:51:26.032Z,84.68
2022-12-29T10:53:57.984Z,84.35
2022-12-29T10:56:45.948Z,84.47
2022-12-29T10:59:29.250Z,84.35
2022-12-29T11:02:24.578Z,84.48
2022-12-29T11:05:00.422Z,84.35
2022-12-29T11:07:27.843Z,84.75
2022-12-29T11:09:55.021Z,84.58
2022-12-29T11:12:30.631Z,84.55
2022-12-29T11:15:16.243Z,84.41
2022-12-29T11:17:52.257Z,84.68
2022-12-29T11:20:40.083Z,84.60
2022-12-29T11:23:22.995Z,84.49
2022-12-29T11:26:15.726Z,84.87
2022-12-29T11:28:46.092Z,84.68
2022-12-29T11:31:17.688Z,84.42
2022-12-29T11:33:44.732Z,84.58
2022-12-29T11:36:21.939Z,84.46
2022-12-29T11:38:57.914Z,84.42
2022-12-29T11:41:31.044Z,84.54
2022-12-29T11:44:05.510Z,84.32
2022-12-29T11:46:39.407Z,84.60
2022-12-29T11:49:07.028Z,84.32
2022-12-29T11:51:48.883Z,84.39
2022-12-29T11:54:24.331Z,84.76
2022-12-29T11:56:52.984Z,84.32
2022-12-29T11:59:39.722Z,84.23
2022-12-29T12:02:48.467Z,84.42
2022-12-29T12:05:23.391Z,84.62
2022-12-29T12:08:21.004Z,84.48
2022-12-29T12:10:51.286Z,84.45
2022-12-29T12:13:31.051Z,84.75
2022-12-29T12:16:27.819Z,84.34
2022-12-29T12:19:25.497Z,84.30
2022-12-29T12:22:00.817Z,84.25
2022-12-29T12:24:49.941Z,83.94
2022-12-29T12:27:22.915Z,84.41
2022-12-29T12:30:25.188Z,84.25
2022-12-29T12:33:00.682Z,84.35
2022-12-29T12:35:46.040Z,84.19
2022-12-29T12:38:35.715Z,84.23
2022-12-29T12:41:19.717Z,84.20
2022-12-29T12:44:11.999Z,84.42
2022-12-29T12:47:14.080Z,84.28
2022-12-29T12:49:49.812Z,83.93
2022-12-29T12:52:43.710Z,83.84
2022-12-29T12:55:28.450Z,83.74
2022-12-29T12:58:23.788Z,84.47
2022-12-29T13:00:56.301Z,84.51
2022-12-29T13:03:51.347Z,84.71
2022-12-29T13:06:23.923Z,84.71
2022-12-29T13:09:00.885Z,84.82
2022-12-29T13:12:16.115Z,84.95
2022-12-29T13:14:46.000Z,85.15
2022-12-29T13:17:18.863Z,85.26
2022-12-29T13:20:11.146Z,85.31
2022-12-29T13:22:50.147Z,85.26
2022-12-29T13:25:33.696Z,85.62
2022-12-29T13:28:11.608Z,85.38
2022-12-29T13:30:57.941Z,85.45
2022-12-29T13:33:56.199Z,85.86
2022-12-29T13:36:44.281Z,85.66
2022-12-29T13:39:26.930Z,85.91
2022-12-29T13:41:58.114Z,85.85
2022-12-29T13:44:36.364Z,86.06
2022-12-29T13:47:26.895Z,85.96
2022-12-29T13:49:54.392Z,85.91
2022-12-29T13:52:44.146Z,85.95
2022-12-29T13:55:16.724Z,85.90
2022-12-29T13:58:15.543Z,85.89
2022-12-29T14:01:14.913Z,85.73
2022-12-29T14:03:55.395Z,85.96
2022-12-29T14:06:29.369Z,86.05
2022-12-29T14:09:05.611Z,86.02
2022-12-29T14:11:32.455Z,85.89
2022-12-29T14:14:01.563Z,85.92
2022-12-29T14:16:34.245Z,85.94
2022-12-29T14:19:25.421Z,85.90
2022-12-29T14:21:55.184Z,85.90
2022-12-29T14:24:33.838Z,85.70
2022-12-29T14:27:00.742Z,85.93
2022-12-29T14:29:30.537Z,85.74
2022-12-29T14:31:57.517Z,85.83
2022-12-29T14:34:29.945Z,85.67
2022-12-29T14:37:02.554Z,85.61
2022-12-29T14:39:38.301Z,85.63
2022-12-29T14:42:05.280Z,85.74
2022-12-29T14:44:32.927Z,85.64
2022-12-29T14:47:06.488Z,85.74
2022-12-29T14:49:43.703Z,85.73
2022-12-29T14:52:19.940Z,85.83
2022-12-29T14:55:20.221Z,85.96
2022-12-29T14:57:57.948Z,85.97
2022-12-29T15:00:30.941Z,85.89
2022-12-29T15:03:29.992Z,85.87
2022-12-29T15:06:03.535Z,85.99
2022-12-29T15:08:38.820Z,86.16
2022-12-29T15:11:13.124Z,86.13
2022-12-29T15:13:43.358Z,86.00
2022-12-29T15:16:32.523Z,85.95
2022-12-29T15:19:00.276Z,86.14
2022-12-29T15:21:36.519Z,86.14
2022-12-29T15:24:06.775Z,86.06
2022-12-29T15:26:41.713Z,86.15
2022-12-29T15:29:40.713Z,85.87
2022-12-29T15:32:16.866Z,86.03
2022-12-29T15:34:49.220Z,86.13
2022-12-29T15:37:33.096Z,85.76
2022-12-29T15:40:00.154Z,85.78
2022-12-29T15:42:47.888Z,85.84
2022-12-29T15:45:16.302Z,85.59
2022-12-29T15:47:48.035Z,85.80
2022-12-29T15:50:30.386Z,85.48
2022-12-29T15:52:58.476Z,85.67
2022-12-29T15:55:34.096Z,85.53
2022-12-29T15:58:03.257Z,85.62
2022-12-29T16:00:40.188Z,85.69
2022-12-29T16:03:13.934Z,85.59
2022-12-29T16:05:41.460Z,85.51
2022-12-29T16:08:33.537Z,85.51
2022-12-29T16:11:21.879Z,85.48
2022-12-29T16:13:51.066Z,85.37
2022-12-29T16:16:20.270Z,85.46
2022-12-29T16:18:50.642Z,85.42
2022-12-29T16:21:29.645Z,85.55
2022-12-29T16:24:02.325Z,85.33
2022-12-29T16:26:29.945Z,85.40
2022-12-29T16:29:02.456Z,85.23
2022-12-29T16:32:01.117Z,84.93
2022-12-29T16:34:45.199Z,85.28
2022-12-29T16:37:34.377Z,85.19
2022-12-29T16:40:20.604Z,85.13
2022-12-29T16:42:52.322Z,85.14
2022-12-29T16:45:19.435Z,84.99
2022-12-29T16:48:06.469Z,85.14
2022-12-29T16:50:38.879Z,85.09
2022-12-29T16:53:07.446Z,85.10
2022-12-29T16:55:34.553Z,85.09
2022-12-29T16:58:01.644Z,85.27
2022-12-29T17:00:37.993Z,85.20
2022-12-29T17:03:05.177Z,85.03
2022-12-29T17:05:32.000Z,84.50
2022-12-29T17:08:02.039Z,84.53
2022-12-29T17:10:49.433Z,84.84
2022-12-29T17:13:16.279Z,84.07
2022-12-29T17:15:43.113Z,83.48
2022-12-29T17:18:13.909Z,83.52
2022-12-29T17:20:41.263Z,82.89
2022-12-29T17:23:19.748Z,82.30
2022-12-29T17:25:49.603Z,82.50
2022-12-29T17:28:25.664Z,82.43
2022-12-29T17:31:03.305Z,82.33
2022-12-29T17:33:37.352Z,81.26
2022-12-29T17:36:04.540Z,81.26
2022-12-29T17:38:35.151Z,81.76
2022-12-29T17:41:02.158Z,81.63
2022-12-29T17:43:34.830Z,81.49
2022-12-29T17:46:06.809Z,81.97
2022-12-29T17:48:33.767Z,82.07
2022-12-29T17:51:00.791Z,82.35
2022-12-29T17:53:30.112Z,82.65
2022-12-29T17:55:57.256Z,82.33
2022-12-29T17:58:26.851Z,82.51
2022-12-29T18:00:59.662Z,82.65
2022-12-29T18:03:28.494Z,82.68
2022-12-29T18:05:55.811Z,82.71
2022-12-29T18:08:22.806Z,83.27
2022-12-29T18:10:51.782Z,82.55
2022-12-29T18:13:40.481Z,83.38
2022-12-29T18:16:13.055Z,82.92
2022-12-29T18:18:39.859Z,82.96
2022-12-29T18:21:07.023Z,82.69
2022-12-29T18:23:37.337Z,82.85
2022-12-29T18:26:16.044Z,82.57
2022-12-29T18:28:44.674Z,82.86
2022-12-29T18:31:21.912Z,82.65
2022-12-29T18:33:50.602Z,82.67
2022-12-29T18:36:18.904Z,82.60
2022-12-29T18:38:45.975Z,82.72
2022-12-29T18:41:31.249Z,82.81
2022-12-29T18:43:59.462Z,82.56
2022-12-29T18:46:26.808Z,82.80
2022-12-29T18:48:54.105Z,82.78
2022-12-29T18:51:23.705Z,82.91
2022-12-29T18:53:52.346Z,82.87
2022-12-29T18:56:20.886Z,82.67
2022-12-29T18:58:47.716Z,82.75
2022-12-29T19:01:32.730Z,83.00
2022-12-29T19:03:59.849Z,82.55
2022-12-29T19:06:26.649Z,82.93
2022-12-29T19:08:53.546Z,83.10
2022-12-29T19:11:20.371Z,83.16
2022-12-29T19:13:47.774Z,83.06
2022-12-29T19:16:19.933Z,83.30
2022-12-29T19:18:58.214Z,83.21
2022-12-29T19:21:25.412Z,83.20
2022-12-29T19:23:53.165Z,83.39
2022-12-29T19:26:31.752Z,83.12
2022-12-29T19:28:59.720Z,83.50
2022-12-29T19:31:26.628Z,83.10
2022-12-29T19:33:53.720Z,83.16
2022-12-29T19:36:21.458Z,83.15
2022-12-29T19:38:48.409Z,82.87
2022-12-29T19:41:16.306Z,82.79
2022-12-29T19:43:43.518Z,83.00
2022-12-29T19:46:15.212Z,82.86
2022-12-29T19:48:42.585Z,82.58
2022-12-29T19:51:13.422Z,82.64
2022-12-29T19:53:40.222Z,82.65
2022-12-29T19:56:08.902Z,82.53
2022-12-29T19:58:36.897Z,82.55
2022-12-29T20:01:06.751Z,82.71
2022-12-29T20:03:34.033Z,82.58
2022-12-29T20:06:01.655Z,82.52
2022-12-29T20:08:28.720Z,82.51
2022-12-29T20:11:04.223Z,82.81
2022-12-29T20:13:35.660Z,82.61
2022-12-29T20:16:05.201Z,82.67
2022-12-29T20:18:32.380Z,82.76
2022-12-29T20:21:07.604Z,82.69
2022-12-29T20:23:37.375Z,82.45
2022-12-29T20:26:04.615Z,82.44
2022-12-29T20:28:31.893Z,82.69
2022-12-29T20:31:09.048Z,82.60
2022-12-29T20:33:36.386Z,82.64
2022-12-29T20:36:09.780Z,82.71
2022-12-29T20:38:37.653Z,83.07
2022-12-29T20:41:05.335Z,82.90
2022-12-29T20:43:32.182Z,82.65
2022-12-29T20:45:59.121Z,82.98
2022-12-29T20:48:26.417Z,82.67
2022-12-29T20:50:53.495Z,82.67
2022-12-29T20:53:20.451Z,82.32
2022-12-29T20:55:47.819Z,82.42
2022-12-29T20:58:23.459Z,82.17
2022-12-29T21:00:51.251Z,82.35
2022-12-29T21:03:18.171Z,82.23
2022-12-29T21:05:45.174Z,82.00
2022-12-29T21:08:12.027Z,81.94
2022-12-29T21:10:39.034Z,81.99
2022-12-29T21:13:05.910Z,82.09
2022-12-29T21:15:33.225Z,82.04
2022-12-29T21:18:00.010Z,81.64
2022-12-29T21:20:32.703Z,81.78
2022-12-29T21:23:00.932Z,81.63
2022-12-29T21:25:37.247Z,81.46
2022-12-29T21:28:12.144Z,81.85
2022-12-29T21:30:39.685Z,81.97
2022-12-29T21:33:06.518Z,81.45
2022-12-29T21:35:37.670Z,81.68
2022-12-29T21:38:08.317Z,81.65
2022-12-29T21:40:36.740Z,81.71
2022-12-29T21:43:04.078Z,81.82
2022-12-29T21:45:34.351Z,81.80
2022-12-29T21:48:21.408Z,81.25
2022-12-29T21:51:15.244Z,81.30
2022-12-29T21:53:44.449Z,81.40
2022-12-29T21:56:14.273Z,81.17
2022-12-29T21:59:03.641Z,81.23
2022-12-29T22:01:50.930Z,81.07
2022-12-29T22:04:39.164Z,81.62
2022-12-29T22:07:26.469Z,81.22
2022-12-29T22:10:11.708Z,81.19
2022-12-29T22:12:57.583Z,81.23
2022-12-29T22:15:25.110Z,81.02
2022-12-29T22:17:54.020Z,81.53
2022-12-29T22:20:23.527Z,81.97
2022-12-29T22:22:50.321Z,81.82
2022-12-29T22:25:17.611Z,81.44
2022-12-29T22:27:45.088Z,81.45
2022-12-29T22:30:12.200Z,80.97
2022-12-29T22:32:39.567Z,81.54
2022-12-29T22:35:08.471Z,81.54
2022-12-29T22:37:36.714Z,80.84
2022-12-29T22:40:05.035Z,81.06
2022-12-29T22:42:32.354Z,80.93
2022-12-29T22:44:59.215Z,81.55
2022-12-29T22:47:25.985Z,81.18
2022-12-29T22:49:52.860Z,80.76
2022-12-29T22:52:19.755Z,81.07
2022-12-29T22:54:46.682Z,81.22
2022-12-29T22:57:13.485Z,81.36
2022-12-29T22:59:40.490Z,81.27
2022-12-29T23:02:07.421Z,80.91
2022-12-29T23:05:02.163Z,80.63
2022-12-29T23:07:21.509Z,80.74
2022-12-29T23:09:48.299Z,80.52
2022-12-29T23:12:15.222Z,80.88
2022-12-29T23:14:42.011Z,80.72
2022-12-29T23:17:08.820Z,80.80
2022-12-29T23:19:35.639Z,80.82
2022-12-29T23:22:02.725Z,80.91
2022-12-29T23:24:29.528Z,80.73
2022-12-29T23:26:56.396Z,80.71
2022-12-29T23:29:24.137Z,80.51
2022-12-29T23:31:51.110Z,80.57
2022-12-29T23:34:18.124Z,80.90
2022-12-29T23:36:45.036Z,81.12
2022-12-29T23:39:19.183Z,81.23
2022-12-29T23:41:46.201Z,81.45
2022-12-29T23:44:13.076Z,81.39
2022-12-29T23:46:41.059Z,81.42
2022-12-29T23:49:09.340Z,81.38
2022-12-29T23:51:36.445Z,81.20
2022-12-29T23:54:03.688Z,81.27
2022-12-29T23:56:30.680Z,81.35
2022-12-29T23:58:57.519Z,81.49
